createdAt,value
2023-06-29T00:00:25.428Z,993.69
2023-06-29T00:01:25.526Z,993.70
2023-06-29T00:02:25.419Z,993.68
2023-06-29T00:03:25.387Z,993.66
2023-06-29T00:06:25.388Z,993.70
2023-06-29T00:07:25.511Z,993.66
2023-06-29T00:08:25.425Z,993.69
2023-06-29T00:10:25.432Z,993.61
2023-06-29T00:11:25.434Z,993.66
2023-06-29T00:12:25.283Z,993.59
2023-06-29T00:13:25.437Z,993.64
2023-06-29T00:15:25.381Z,993.56
2023-06-29T00:16:25.420Z,993.65
2023-06-29T00:17:25.511Z,993.51
2023-06-29T00:18:25.414Z,993.55
2023-06-29T00:20:25.473Z,993.53
2023-06-29T00:21:25.236Z,993.50
2023-06-29T00:22:25.425Z,993.52
2023-06-29T00:23:25.456Z,993.52
2023-06-29T00:25:25.354Z,993.51
2023-06-29T00:26:25.440Z,993.52
2023-06-29T00:27:25.445Z,993.52
2023-06-29T00:28:25.462Z,993.46
2023-06-29T00:30:25.460Z,993.41
2023-06-29T00:31:25.788Z,993.45
2023-06-29T00:32:25.420Z,993.43
2023-06-29T00:33:25.450Z,993.44
2023-06-29T00:35:25.451Z,993.45
2023-06-29T00:36:25.470Z,993.43
2023-06-29T00:37:25.485Z,993.42
2023-06-29T00:38:25.438Z,993.47
2023-06-29T00:40:25.257Z,993.41
2023-06-29T00:41:25.454Z,993.48
2023-06-29T00:42:25.457Z,993.42
2023-06-29T00:43:25.411Z,993.45
2023-06-29T00:46:25.503Z,993.43
2023-06-29T00:47:25.513Z,993.41
2023-06-29T00:48:25.474Z,993.44
2023-06-29T00:49:25.486Z,993.43
2023-06-29T00:51:25.475Z,993.43
2023-06-29T00:52:25.432Z,993.47
2023-06-29T00:53:25.446Z,993.44
2023-06-29T00:54:25.481Z,993.46
2023-06-29T00:56:25.473Z,993.45
2023-06-29T00:57:25.467Z,993.48
2023-06-29T00:58:25.442Z,993.42
2023-06-29T00:59:25.442Z,993.40
2023-06-29T01:02:25.569Z,993.42
2023-06-29T01:03:25.633Z,993.49
2023-06-29T01:04:25.478Z,993.45
2023-06-29T01:07:25.566Z,993.44
2023-06-29T01:08:25.486Z,993.41
2023-06-29T01:09:25.470Z,993.40
2023-06-29T01:12:25.483Z,993.40
2023-06-29T01:13:25.511Z,993.38
2023-06-29T01:14:25.473Z,993.32
2023-06-29T01:17:25.565Z,993.40
2023-06-29T01:18:25.331Z,993.30
2023-06-29T01:19:25.430Z,993.43
2023-06-29T01:20:25.473Z,993.41
2023-06-29T01:22:25.484Z,993.36
2023-06-29T01:23:25.493Z,993.33
2023-06-29T01:24:25.404Z,993.37
2023-06-29T01:25:25.519Z,993.40
2023-06-29T01:27:25.290Z,993.42
2023-06-29T01:28:25.529Z,993.41
2023-06-29T01:29:25.544Z,993.52
2023-06-29T01:30:25.529Z,993.45
2023-06-29T01:32:25.325Z,993.42
2023-06-29T01:33:25.459Z,993.45
2023-06-29T01:34:25.479Z,993.45
2023-06-29T01:35:25.492Z,993.53
2023-06-29T01:37:25.476Z,993.37
2023-06-29T01:38:25.540Z,993.44
2023-06-29T01:39:25.552Z,993.45
2023-06-29T01:40:25.489Z,993.45
2023-06-29T01:42:25.494Z,993.42
2023-06-29T01:43:25.508Z,993.38
2023-06-29T01:44:25.502Z,993.38
2023-06-29T01:45:25.501Z,993.35
2023-06-29T01:47:25.561Z,993.42
2023-06-29T01:48:25.524Z,993.35
2023-06-29T01:49:25.551Z,993.39
2023-06-29T01:50:25.537Z,993.41
2023-06-29T01:52:25.537Z,993.39
2023-06-29T01:53:25.546Z,993.34
2023-06-29T01:54:25.588Z,993.33
2023-06-29T01:55:25.517Z,993.36
2023-06-29T01:57:25.338Z,993.35
2023-06-29T01:58:25.527Z,993.36
2023-06-29T01:59:25.378Z,993.35
2023-06-29T02:00:25.501Z,993.25
2023-06-29T02:02:25.546Z,993.36
2023-06-29T02:03:25.603Z,993.32
2023-06-29T02:04:25.510Z,993.39
2023-06-29T02:05:25.551Z,993.39
2023-06-29T02:08:25.529Z,993.42
2023-06-29T02:09:25.521Z,993.41
2023-06-29T02:10:25.566Z,993.42
2023-06-29T02:11:25.557Z,993.35
2023-06-29T02:13:25.356Z,993.38
2023-06-29T02:14:25.363Z,993.34
2023-06-29T02:15:25.531Z,993.33
2023-06-29T02:16:25.679Z,993.30
2023-06-29T02:19:25.575Z,993.30
2023-06-29T02:20:25.595Z,993.25
2023-06-29T02:21:25.633Z,993.23
2023-06-29T02:22:25.561Z,993.26
2023-06-29T02:25:25.562Z,993.30
2023-06-29T02:26:25.562Z,993.27
2023-06-29T02:27:25.558Z,993.22
2023-06-29T02:28:25.632Z,993.30
2023-06-29T02:31:25.584Z,993.23
2023-06-29T02:32:25.569Z,993.22
2023-06-29T02:33:25.560Z,993.24
2023-06-29T02:34:25.567Z,993.26
2023-06-29T02:36:25.565Z,993.21
2023-06-29T02:37:25.381Z,993.23
2023-06-29T02:38:25.559Z,993.24
2023-06-29T02:39:25.571Z,993.19
2023-06-29T02:41:25.638Z,993.12
2023-06-29T02:42:25.572Z,993.21
2023-06-29T02:43:25.381Z,993.18
2023-06-29T02:44:25.580Z,993.20
2023-06-29T02:47:25.634Z,993.15
2023-06-29T02:48:25.552Z,993.09
2023-06-29T02:49:25.572Z,993.04
2023-06-29T02:50:25.639Z,993.06
2023-06-29T02:52:25.589Z,993.07
2023-06-29T02:53:25.560Z,993.09
2023-06-29T02:54:25.582Z,992.95
2023-06-29T02:55:25.632Z,992.97
2023-06-29T02:57:25.579Z,992.93
2023-06-29T02:58:25.641Z,992.96
2023-06-29T02:59:25.571Z,992.90
2023-06-29T03:00:25.604Z,992.97
2023-06-29T03:02:25.628Z,992.94
2023-06-29T03:03:25.721Z,992.93
2023-06-29T03:04:25.580Z,993.00
2023-06-29T03:05:25.603Z,993.00
2023-06-29T03:07:25.646Z,992.94
2023-06-29T03:08:25.617Z,992.93
2023-06-29T03:09:25.647Z,992.97
2023-06-29T03:10:25.669Z,992.90
2023-06-29T03:12:25.653Z,992.92
2023-06-29T03:13:25.630Z,992.94
2023-06-29T03:14:25.620Z,992.99
2023-06-29T03:15:25.606Z,992.88
2023-06-29T03:18:25.486Z,992.90
2023-06-29T03:19:25.657Z,992.93
2023-06-29T03:20:25.688Z,993.01
2023-06-29T03:22:25.645Z,992.99
2023-06-29T03:23:25.651Z,992.98
2023-06-29T03:24:25.448Z,992.91
2023-06-29T03:25:25.619Z,992.92
2023-06-29T03:27:25.611Z,992.92
2023-06-29T03:28:25.665Z,992.95
2023-06-29T03:29:25.645Z,992.98
2023-06-29T03:30:25.640Z,992.95
2023-06-29T03:33:25.668Z,992.95
2023-06-29T03:34:25.622Z,992.95
2023-06-29T03:35:25.638Z,993.00
2023-06-29T03:36:25.682Z,993.01
2023-06-29T03:38:25.653Z,993.02
2023-06-29T03:39:25.628Z,993.01
2023-06-29T03:40:25.633Z,992.97
2023-06-29T03:41:25.720Z,992.91
2023-06-29T03:43:25.632Z,992.99
2023-06-29T03:44:25.634Z,992.94
2023-06-29T03:45:25.696Z,992.90
2023-06-29T03:46:25.666Z,992.85
2023-06-29T03:48:25.800Z,992.95
2023-06-29T03:49:25.672Z,992.83
2023-06-29T03:50:25.684Z,992.88
2023-06-29T03:51:25.692Z,992.84
2023-06-29T03:54:25.669Z,992.88
2023-06-29T03:55:25.667Z,992.89
2023-06-29T03:56:25.654Z,992.92
2023-06-29T03:57:25.689Z,992.89
2023-06-29T04:00:25.688Z,992.95
2023-06-29T04:01:25.710Z,992.90
2023-06-29T04:02:25.665Z,992.91
2023-06-29T04:03:25.764Z,992.86
2023-06-29T04:06:25.670Z,992.78
2023-06-29T04:07:25.696Z,992.85
2023-06-29T04:08:25.677Z,992.80
2023-06-29T04:09:25.675Z,992.73
2023-06-29T04:12:25.679Z,992.72
2023-06-29T04:13:25.757Z,992.75
2023-06-29T04:14:25.488Z,992.74
2023-06-29T04:15:25.706Z,992.71
2023-06-29T04:17:25.722Z,992.70
2023-06-29T04:18:25.735Z,992.73
2023-06-29T04:19:25.691Z,992.77
2023-06-29T04:20:25.682Z,992.78
2023-06-29T04:22:25.695Z,992.78
2023-06-29T04:23:25.726Z,992.73
2023-06-29T04:24:25.687Z,992.71
2023-06-29T04:25:25.701Z,992.72
2023-06-29T04:28:25.680Z,992.64
2023-06-29T04:29:25.514Z,992.64
2023-06-29T04:30:25.759Z,992.66
2023-06-29T04:32:25.737Z,992.65
2023-06-29T04:33:25.689Z,992.69
2023-06-29T04:34:25.697Z,992.71
2023-06-29T04:35:25.702Z,992.65
2023-06-29T04:37:25.695Z,992.75
2023-06-29T04:38:25.715Z,992.72
2023-06-29T04:39:25.732Z,992.74
2023-06-29T04:40:25.629Z,992.76
2023-06-29T04:43:25.527Z,992.73
2023-06-29T04:44:25.732Z,992.77
2023-06-29T04:45:25.705Z,992.79
2023-06-29T04:46:25.756Z,992.73
2023-06-29T04:48:25.716Z,992.73
2023-06-29T04:49:25.544Z,992.74
2023-06-29T04:50:25.749Z,992.76
2023-06-29T04:51:25.745Z,992.69
2023-06-29T04:53:25.702Z,992.71
2023-06-29T04:54:25.549Z,992.57
2023-06-29T04:55:25.758Z,992.64
2023-06-29T04:56:25.716Z,992.59
2023-06-29T04:58:25.776Z,992.62
2023-06-29T04:59:25.787Z,992.69
2023-06-29T05:00:25.605Z,992.58
2023-06-29T05:01:25.860Z,992.62
2023-06-29T05:04:25.771Z,992.57
2023-06-29T05:05:25.760Z,992.56
2023-06-29T05:06:25.697Z,992.56
2023-06-29T05:09:25.796Z,992.55
2023-06-29T05:10:25.792Z,992.51
2023-06-29T05:11:25.781Z,992.50
2023-06-29T05:12:25.772Z,992.51
2023-06-29T05:15:25.778Z,992.44
2023-06-29T05:16:25.891Z,992.39
2023-06-29T05:17:25.625Z,992.37
2023-06-29T05:18:25.799Z,992.41
2023-06-29T05:20:25.753Z,992.32
2023-06-29T05:21:25.830Z,992.30
2023-06-29T05:22:25.764Z,992.33
2023-06-29T05:23:25.809Z,992.30
2023-06-29T05:25:25.757Z,992.38
2023-06-29T05:26:25.649Z,992.30
2023-06-29T05:27:25.821Z,992.34
2023-06-29T05:28:25.741Z,992.32
2023-06-29T05:31:25.821Z,992.29
2023-06-29T05:32:25.642Z,992.31
2023-06-29T05:33:25.783Z,992.27
2023-06-29T05:34:25.737Z,992.32
2023-06-29T05:36:25.822Z,992.34
2023-06-29T05:37:25.766Z,992.29
2023-06-29T05:38:25.781Z,992.29
2023-06-29T05:39:25.776Z,992.31
2023-06-29T05:41:25.823Z,992.31
2023-06-29T05:42:25.843Z,992.28
2023-06-29T05:43:25.819Z,992.31
2023-06-29T05:44:25.811Z,992.33
2023-06-29T05:46:26.005Z,992.26
2023-06-29T05:47:25.798Z,992.25
2023-06-29T05:48:25.832Z,992.32
2023-06-29T05:49:25.789Z,992.26
2023-06-29T05:51:25.790Z,992.22
2023-06-29T05:52:25.796Z,992.21
2023-06-29T05:53:25.763Z,992.19
2023-06-29T05:54:25.782Z,992.26
2023-06-29T05:56:25.840Z,992.25
2023-06-29T05:57:25.790Z,992.16
2023-06-29T05:58:25.601Z,992.15
2023-06-29T05:59:25.795Z,992.28
2023-06-29T06:02:25.887Z,992.25
2023-06-29T06:03:25.899Z,992.21
2023-06-29T06:04:25.877Z,992.23
2023-06-29T06:05:25.841Z,992.19
2023-06-29T06:07:25.876Z,992.16
2023-06-29T06:08:25.836Z,992.23
2023-06-29T06:09:25.835Z,992.25
2023-06-29T06:10:25.816Z,992.23
2023-06-29T06:12:25.807Z,992.16
2023-06-29T06:13:25.856Z,992.27
2023-06-29T06:14:25.857Z,992.29
2023-06-29T06:15:25.816Z,992.29
2023-06-29T06:18:25.868Z,992.30
2023-06-29T06:19:25.888Z,992.29
2023-06-29T06:20:25.838Z,992.22
2023-06-29T06:21:25.815Z,992.20
2023-06-29T06:24:25.843Z,992.14
2023-06-29T06:25:25.854Z,992.16
2023-06-29T06:26:25.859Z,992.05
2023-06-29T06:27:25.876Z,992.15
2023-06-29T06:30:25.881Z,992.11
2023-06-29T06:31:33.404Z,992.10
2023-06-29T06:32:25.919Z,992.10
2023-06-29T06:33:25.888Z,992.11
2023-06-29T06:35:25.798Z,992.10
2023-06-29T06:36:25.879Z,992.10
2023-06-29T06:37:25.884Z,992.05
2023-06-29T06:38:34.407Z,992.15
2023-06-29T06:40:25.849Z,992.08
2023-06-29T06:41:25.842Z,992.08
2023-06-29T06:42:25.862Z,992.12
2023-06-29T06:43:25.889Z,992.07
2023-06-29T06:46:25.891Z,992.09
2023-06-29T06:47:25.861Z,992.06
2023-06-29T06:48:25.839Z,992.03
2023-06-29T06:50:25.922Z,992.03
2023-06-29T06:51:25.892Z,992.06
2023-06-29T06:52:25.841Z,992.03
2023-06-29T06:53:25.849Z,992.12
2023-06-29T06:56:25.889Z,992.02
2023-06-29T06:57:25.908Z,991.99
2023-06-29T06:58:25.910Z,992.04
2023-06-29T07:00:25.843Z,992.05
2023-06-29T07:01:25.938Z,991.98
2023-06-29T07:02:25.952Z,991.98
2023-06-29T07:03:25.831Z,991.98
2023-06-29T07:06:25.757Z,991.98
2023-06-29T07:07:25.980Z,991.90
2023-06-29T07:08:25.902Z,991.98
2023-06-29T07:11:25.893Z,991.91
2023-06-29T07:12:25.939Z,991.95
2023-06-29T07:13:25.935Z,991.94
2023-06-29T07:15:25.945Z,991.96
2023-06-29T07:16:25.770Z,991.97
2023-06-29T07:17:25.889Z,991.99
2023-06-29T07:18:25.910Z,991.94
2023-06-29T07:21:26.349Z,991.93
2023-06-29T07:24:25.908Z,991.92
2023-06-29T07:25:25.959Z,991.88
2023-06-29T07:26:25.841Z,991.89
2023-06-29T07:28:25.958Z,991.86
2023-06-29T07:29:26.001Z,991.93
2023-06-29T07:30:25.963Z,991.91
2023-06-29T07:31:25.968Z,991.90
2023-06-29T07:33:25.910Z,991.88
2023-06-29T07:34:25.913Z,991.87
2023-06-29T07:35:25.940Z,991.88
2023-06-29T07:36:25.931Z,991.85
2023-06-29T07:38:25.943Z,991.88
2023-06-29T07:39:25.745Z,991.76
2023-06-29T07:40:25.944Z,991.81
2023-06-29T07:41:25.946Z,991.73
2023-06-29T07:43:25.993Z,991.74
2023-06-29T07:44:25.939Z,991.76
2023-06-29T07:45:25.961Z,991.81
2023-06-29T07:46:25.983Z,991.72
2023-06-29T07:48:26.061Z,991.71
2023-06-29T07:49:26.002Z,991.71
2023-06-29T07:50:25.988Z,991.72
2023-06-29T07:51:25.937Z,991.80
2023-06-29T07:54:11.417Z,991.74
2023-06-29T07:55:11.380Z,991.74
2023-06-29T07:56:11.397Z,991.82
2023-06-29T07:59:11.370Z,991.76
2023-06-29T08:00:11.380Z,991.69
2023-06-29T08:01:11.407Z,991.73
2023-06-29T08:02:11.523Z,991.78
2023-06-29T08:03:11.436Z,991.77
2023-06-29T08:04:11.729Z,991.81
2023-06-29T08:07:11.598Z,991.76
2023-06-29T08:08:11.560Z,991.76
2023-06-29T08:09:11.405Z,991.74
2023-06-29T08:10:11.465Z,991.81
2023-06-29T08:11:11.426Z,991.78
2023-06-29T08:12:11.395Z,991.88
2023-06-29T08:13:11.430Z,991.83
2023-06-29T08:14:11.436Z,991.82
2023-06-29T08:15:11.397Z,991.85
2023-06-29T08:16:11.425Z,991.89
2023-06-29T08:17:11.460Z,991.78
2023-06-29T08:18:11.456Z,991.78
2023-06-29T08:19:11.450Z,991.75
2023-06-29T08:20:11.428Z,991.77
2023-06-29T08:21:11.412Z,991.76
2023-06-29T08:22:11.479Z,991.78
2023-06-29T08:23:11.440Z,991.81
2023-06-29T08:24:11.444Z,991.77
2023-06-29T08:25:11.409Z,991.77
2023-06-29T08:26:11.411Z,991.76
2023-06-29T08:27:11.430Z,991.79
2023-06-29T08:28:11.447Z,991.80
2023-06-29T08:29:11.438Z,991.79
2023-06-29T08:30:11.423Z,991.79
2023-06-29T08:31:11.478Z,991.80
2023-06-29T08:32:11.534Z,991.83
2023-06-29T08:33:11.652Z,991.86
2023-06-29T08:34:11.671Z,991.81
2023-06-29T08:35:11.623Z,991.80
2023-06-29T08:36:11.621Z,991.74
2023-06-29T08:37:11.698Z,991.77
2023-06-29T08:38:11.667Z,991.65
2023-06-29T08:39:11.714Z,991.69
2023-06-29T08:40:11.661Z,991.72
2023-06-29T08:41:11.718Z,991.75
2023-06-29T08:42:11.680Z,991.73
2023-06-29T08:43:11.714Z,991.65
2023-06-29T08:44:11.707Z,991.68
2023-06-29T08:45:11.719Z,991.70
2023-06-29T08:46:11.903Z,991.65
2023-06-29T08:47:11.730Z,991.74
2023-06-29T08:48:11.784Z,991.73
2023-06-29T08:49:11.780Z,991.75
2023-06-29T08:50:11.800Z,991.70
2023-06-29T08:51:11.833Z,991.75
2023-06-29T08:52:11.803Z,991.71
2023-06-29T08:53:11.898Z,991.70
2023-06-29T08:54:11.838Z,991.65
2023-06-29T08:55:11.870Z,991.68
2023-06-29T08:56:11.872Z,991.65
2023-06-29T08:57:11.889Z,991.66
2023-06-29T08:58:11.924Z,991.72
2023-06-29T08:59:11.930Z,991.66
2023-06-29T09:00:11.937Z,991.67
2023-06-29T09:01:12.001Z,991.67
2023-06-29T09:02:12.047Z,991.64
2023-06-29T09:03:12.312Z,991.64
2023-06-29T09:04:12.006Z,991.73
2023-06-29T09:05:11.980Z,991.63
2023-06-29T09:06:12.002Z,991.64
2023-06-29T09:07:12.105Z,991.66
2023-06-29T09:08:12.104Z,991.66
2023-06-29T09:09:12.037Z,991.68
2023-06-29T09:10:12.056Z,991.65
2023-06-29T09:11:12.049Z,991.66
2023-06-29T09:12:12.055Z,991.65
2023-06-29T09:13:12.081Z,991.64
2023-06-29T09:14:12.116Z,991.62
2023-06-29T09:15:12.107Z,991.64
2023-06-29T09:16:12.175Z,991.56
2023-06-29T09:17:12.148Z,991.57
2023-06-29T09:18:12.193Z,991.59
2023-06-29T09:19:12.140Z,991.51
2023-06-29T09:20:12.166Z,991.58
2023-06-29T09:21:12.160Z,991.55
2023-06-29T09:22:12.186Z,991.53
2023-06-29T09:23:12.206Z,991.61
2023-06-29T09:24:12.248Z,991.57
2023-06-29T09:25:19.750Z,991.59
2023-06-29T09:26:12.277Z,991.58
2023-06-29T09:27:12.218Z,991.58
2023-06-29T09:28:12.252Z,991.58
2023-06-29T09:29:12.247Z,991.54
2023-06-29T09:30:12.251Z,991.50
2023-06-29T09:31:21.381Z,991.49
2023-06-29T09:32:12.239Z,991.45
2023-06-29T09:33:12.267Z,991.49
2023-06-29T09:34:12.257Z,991.47
2023-06-29T09:35:12.254Z,991.48
2023-06-29T09:36:12.233Z,991.48
2023-06-29T09:37:12.253Z,991.48
2023-06-29T09:38:12.291Z,991.49
2023-06-29T09:39:12.271Z,991.51
2023-06-29T09:40:12.245Z,991.55
2023-06-29T09:41:14.390Z,991.41
2023-06-29T09:42:12.291Z,991.43
2023-06-29T09:43:12.249Z,991.45
2023-06-29T09:44:12.292Z,991.40
2023-06-29T09:45:12.257Z,991.44
2023-06-29T09:46:12.275Z,991.39
2023-06-29T09:49:12.422Z,991.43
2023-06-29T09:50:12.378Z,991.38
2023-06-29T09:51:12.383Z,991.34
2023-06-29T09:52:12.289Z,991.37
2023-06-29T09:53:12.289Z,991.39
2023-06-29T09:54:12.251Z,991.39
2023-06-29T09:55:12.281Z,991.35
2023-06-29T09:56:12.295Z,991.35
2023-06-29T09:57:12.291Z,991.40
2023-06-29T09:58:12.280Z,991.34
2023-06-29T09:59:12.274Z,991.29
2023-06-29T10:00:12.295Z,991.39
2023-06-29T10:01:12.358Z,991.40
2023-06-29T10:02:12.355Z,991.35
2023-06-29T10:03:12.362Z,991.38
2023-06-29T10:04:12.296Z,991.33
2023-06-29T10:05:12.298Z,991.31
2023-06-29T10:06:12.292Z,991.28
2023-06-29T10:07:12.328Z,991.33
2023-06-29T10:08:12.268Z,991.26
2023-06-29T10:09:12.283Z,991.24
2023-06-29T10:10:12.286Z,991.23
2023-06-29T10:11:12.277Z,991.25
2023-06-29T10:12:12.299Z,991.27
2023-06-29T10:13:12.311Z,991.19
2023-06-29T10:14:12.310Z,991.23
2023-06-29T10:15:12.850Z,991.22
2023-06-29T10:16:12.282Z,991.18
2023-06-29T10:17:14.717Z,991.18
2023-06-29T10:18:12.319Z,991.16
2023-06-29T10:19:12.296Z,991.24
2023-06-29T10:20:12.368Z,991.18
2023-06-29T10:21:12.331Z,991.20
2023-06-29T10:22:12.310Z,991.16
2023-06-29T10:23:12.292Z,991.17
2023-06-29T10:24:12.300Z,991.22
2023-06-29T10:25:12.326Z,991.23
2023-06-29T10:26:12.309Z,991.15
2023-06-29T10:27:12.362Z,991.17
2023-06-29T10:28:12.315Z,991.15
2023-06-29T10:29:12.317Z,991.20
2023-06-29T10:30:12.327Z,991.12
2023-06-29T10:31:12.368Z,991.12
2023-06-29T10:32:12.342Z,991.15
2023-06-29T10:33:12.382Z,991.16
2023-06-29T10:34:12.320Z,991.14
2023-06-29T10:35:12.319Z,991.16
2023-06-29T10:36:12.414Z,991.15
2023-06-29T10:37:12.365Z,991.13
2023-06-29T10:38:12.340Z,991.17
2023-06-29T10:39:12.347Z,991.15
2023-06-29T10:40:12.339Z,991.18
2023-06-29T10:41:12.330Z,991.09
2023-06-29T10:42:12.336Z,991.10
2023-06-29T10:43:12.328Z,991.17
2023-06-29T10:44:12.325Z,991.17
2023-06-29T10:45:12.349Z,991.09
2023-06-29T10:46:12.385Z,991.10
2023-06-29T10:47:12.362Z,991.05
2023-06-29T10:48:15.170Z,991.09
2023-06-29T10:49:12.349Z,991.03
2023-06-29T10:50:12.364Z,991.07
2023-06-29T10:51:12.360Z,991.14
2023-06-29T10:52:12.368Z,991.01
2023-06-29T10:53:12.342Z,991.06
2023-06-29T10:54:12.386Z,991.02
2023-06-29T10:55:12.338Z,991.10
2023-06-29T10:56:12.346Z,991.08
2023-06-29T10:57:12.368Z,991.05
2023-06-29T10:58:12.372Z,991.09
2023-06-29T10:59:12.351Z,991.02
2023-06-29T11:00:14.270Z,991.04
2023-06-29T11:01:12.353Z,991.03
2023-06-29T11:02:12.437Z,991.01
2023-06-29T11:03:12.468Z,990.94
2023-06-29T11:04:12.413Z,991.02
2023-06-29T11:05:12.361Z,991.01
2023-06-29T11:07:12.392Z,990.96
2023-06-29T11:08:12.379Z,990.95
2023-06-29T11:09:12.411Z,990.94
2023-06-29T11:10:12.377Z,990.93
2023-06-29T11:11:12.359Z,991.03
2023-06-29T11:12:15.437Z,991.03
2023-06-29T11:13:12.379Z,991.05
2023-06-29T11:14:12.411Z,990.98
2023-06-29T11:15:20.165Z,990.97
2023-06-29T11:16:12.383Z,990.84
2023-06-29T11:17:12.365Z,990.93
2023-06-29T11:18:12.403Z,990.89
2023-06-29T11:19:13.437Z,991.08
2023-06-29T11:20:12.391Z,991.04
2023-06-29T11:21:12.400Z,990.99
2023-06-29T11:22:12.375Z,990.97
2023-06-29T11:23:12.397Z,991.04
2023-06-29T11:24:12.398Z,991.00
2023-06-29T11:25:12.404Z,990.95
2023-06-29T11:26:12.382Z,990.96
2023-06-29T11:27:12.389Z,990.91
2023-06-29T11:28:12.390Z,990.95
2023-06-29T11:29:12.409Z,990.89
2023-06-29T11:30:12.423Z,990.95
2023-06-29T11:31:12.524Z,990.86
2023-06-29T11:32:12.644Z,990.93
2023-06-29T11:34:12.405Z,990.85
2023-06-29T11:35:12.437Z,990.90
2023-06-29T11:36:12.424Z,990.92
2023-06-29T11:37:16.000Z,990.91
2023-06-29T11:38:12.538Z,990.89
2023-06-29T11:39:12.428Z,990.95
2023-06-29T11:40:12.409Z,990.90
2023-06-29T11:41:12.696Z,990.95
2023-06-29T11:42:12.438Z,990.96
2023-06-29T11:43:12.426Z,990.86
2023-06-29T11:44:15.029Z,990.87
2023-06-29T11:45:12.421Z,990.95
2023-06-29T11:46:12.474Z,990.86
2023-06-29T11:47:32.119Z,990.83
2023-06-29T11:48:12.470Z,990.90
2023-06-29T11:49:12.419Z,990.89
2023-06-29T11:50:12.445Z,990.92
2023-06-29T11:51:12.480Z,990.97
2023-06-29T11:52:12.457Z,990.93
2023-06-29T11:53:12.819Z,990.87
2023-06-29T11:54:12.981Z,990.89
2023-06-29T11:55:13.004Z,990.86
2023-06-29T11:56:13.000Z,990.89
2023-06-29T11:57:13.020Z,990.93
2023-06-29T11:58:13.042Z,990.89
2023-06-29T11:59:13.041Z,990.86
2023-06-29T12:00:13.072Z,990.93
2023-06-29T12:01:13.079Z,990.88
2023-06-29T12:02:13.111Z,990.89
2023-06-29T12:03:13.259Z,990.84
2023-06-29T12:04:13.171Z,990.88
2023-06-29T12:05:13.177Z,990.86
2023-06-29T12:06:13.150Z,990.86
2023-06-29T12:07:13.215Z,990.84
2023-06-29T12:08:13.287Z,990.81
2023-06-29T12:09:13.224Z,990.88
2023-06-29T12:10:13.186Z,990.88
2023-06-29T12:11:13.221Z,990.90
2023-06-29T12:12:13.223Z,990.88
2023-06-29T12:13:13.193Z,990.83
2023-06-29T12:14:13.235Z,990.81
2023-06-29T12:15:13.232Z,990.81
2023-06-29T12:18:13.889Z,990.75
2023-06-29T12:19:13.391Z,990.72
2023-06-29T12:20:13.535Z,990.82
2023-06-29T12:21:13.389Z,990.78
2023-06-29T12:22:13.562Z,990.74
2023-06-29T12:23:13.268Z,990.70
2023-06-29T12:24:13.279Z,990.68
2023-06-29T12:25:13.285Z,990.73
2023-06-29T12:26:13.274Z,990.69
2023-06-29T12:27:13.277Z,990.74
2023-06-29T12:28:13.262Z,990.73
2023-06-29T12:29:13.266Z,990.76
2023-06-29T12:30:13.280Z,990.72
2023-06-29T12:31:13.328Z,990.70
2023-06-29T12:32:13.323Z,990.66
2023-06-29T12:33:13.322Z,990.79
2023-06-29T12:34:13.335Z,990.77
2023-06-29T12:35:13.368Z,990.77
2023-06-29T12:36:13.379Z,990.80
2023-06-29T12:37:13.393Z,990.77
2023-06-29T12:38:13.382Z,990.80
2023-06-29T12:39:13.400Z,990.79
2023-06-29T12:40:13.429Z,990.82
2023-06-29T12:41:13.412Z,990.79
2023-06-29T12:42:13.467Z,990.87
2023-06-29T12:43:13.489Z,990.78
2023-06-29T12:44:13.456Z,990.77
2023-06-29T12:45:13.508Z,990.90
2023-06-29T12:46:13.500Z,990.79
2023-06-29T12:47:13.552Z,990.79
2023-06-29T12:48:13.571Z,990.86
2023-06-29T12:49:13.544Z,990.78
2023-06-29T12:50:13.525Z,990.79
2023-06-29T12:51:13.547Z,990.79
2023-06-29T12:52:13.541Z,990.77
2023-06-29T12:53:13.585Z,990.75
2023-06-29T12:54:13.604Z,990.75
2023-06-29T12:55:13.590Z,990.77
2023-06-29T12:56:13.688Z,990.69
2023-06-29T12:57:13.640Z,990.73
2023-06-29T12:58:13.642Z,990.68
2023-06-29T12:59:13.669Z,990.68
2023-06-29T13:00:13.764Z,990.71
2023-06-29T13:01:13.677Z,990.71
2023-06-29T13:02:13.802Z,990.65
2023-06-29T13:03:13.799Z,990.63
2023-06-29T13:04:13.810Z,990.69
2023-06-29T13:05:13.765Z,990.65
2023-06-29T13:06:13.765Z,990.65
2023-06-29T13:07:13.808Z,990.70
2023-06-29T13:08:13.756Z,990.72
2023-06-29T13:09:13.774Z,990.67
2023-06-29T13:10:13.829Z,990.68
2023-06-29T13:11:13.799Z,990.67
2023-06-29T13:12:13.809Z,990.71
2023-06-29T13:13:13.942Z,990.72
2023-06-29T13:14:13.852Z,990.73
2023-06-29T13:15:13.890Z,990.69
2023-06-29T13:16:13.900Z,990.73
2023-06-29T13:17:13.938Z,990.71
2023-06-29T13:18:13.901Z,990.72
2023-06-29T13:19:13.902Z,990.68
2023-06-29T13:20:13.896Z,990.68
2023-06-29T13:21:13.934Z,990.65
2023-06-29T13:22:13.946Z,990.70
2023-06-29T13:23:13.959Z,990.68
2023-06-29T13:24:13.985Z,990.66
2023-06-29T13:25:13.972Z,990.67
2023-06-29T13:26:13.988Z,990.64
2023-06-29T13:27:14.036Z,990.62
2023-06-29T13:28:13.985Z,990.61
2023-06-29T13:29:14.069Z,990.61
2023-06-29T13:30:14.064Z,990.65
2023-06-29T13:31:14.112Z,990.59
2023-06-29T13:32:14.090Z,990.61
2023-06-29T13:33:14.078Z,990.55
2023-06-29T13:34:14.064Z,990.63
2023-06-29T13:35:14.152Z,990.59
2023-06-29T13:36:14.097Z,990.62
2023-06-29T13:37:14.122Z,990.57
2023-06-29T13:38:14.132Z,990.62
2023-06-29T13:39:14.143Z,990.57
2023-06-29T13:40:14.169Z,990.57
2023-06-29T13:41:14.174Z,990.59
2023-06-29T13:42:14.224Z,990.52
2023-06-29T13:43:14.201Z,990.55
2023-06-29T13:44:14.229Z,990.56
2023-06-29T13:45:14.209Z,990.50
2023-06-29T13:46:14.229Z,990.54
2023-06-29T13:47:14.266Z,990.50
2023-06-29T13:48:14.449Z,990.45
2023-06-29T13:49:14.272Z,990.48
2023-06-29T13:50:16.504Z,990.47
2023-06-29T13:51:14.283Z,990.47
2023-06-29T13:52:14.309Z,990.52
2023-06-29T13:53:14.325Z,990.48
2023-06-29T13:54:14.278Z,990.52
2023-06-29T13:55:14.294Z,990.44
2023-06-29T13:56:14.317Z,990.48
2023-06-29T13:57:14.288Z,990.48
2023-06-29T13:58:14.429Z,990.46
2023-06-29T13:59:14.282Z,990.45
2023-06-29T14:00:14.280Z,990.48
2023-06-29T14:01:14.324Z,990.40
2023-06-29T14:02:14.415Z,990.36
2023-06-29T14:03:14.383Z,990.41
2023-06-29T14:04:14.467Z,990.43
2023-06-29T14:05:14.366Z,990.43
2023-06-29T14:06:14.306Z,990.35
2023-06-29T14:07:14.342Z,990.41
2023-06-29T14:08:14.302Z,990.37
2023-06-29T14:09:14.317Z,990.41
2023-06-29T14:10:14.329Z,990.35
2023-06-29T14:11:14.308Z,990.37
2023-06-29T14:12:14.303Z,990.35
2023-06-29T14:13:14.365Z,990.40
2023-06-29T14:14:14.302Z,990.35
2023-06-29T14:15:14.357Z,990.39
2023-06-29T14:16:14.344Z,990.35
2023-06-29T14:17:14.510Z,990.37
2023-06-29T14:18:14.479Z,990.31
2023-06-29T14:19:14.328Z,990.29
2023-06-29T14:20:14.365Z,990.27
2023-06-29T14:21:14.324Z,990.31
2023-06-29T14:22:14.299Z,990.30
2023-06-29T14:23:14.324Z,990.33
2023-06-29T14:24:14.361Z,990.31
2023-06-29T14:25:14.329Z,990.21
2023-06-29T14:26:14.335Z,990.20
2023-06-29T14:27:14.602Z,990.25
2023-06-29T14:28:14.328Z,990.17
2023-06-29T14:29:14.341Z,990.09
2023-06-29T14:30:14.317Z,990.18
2023-06-29T14:31:14.389Z,990.15
2023-06-29T14:32:14.349Z,990.13
2023-06-29T14:33:27.598Z,990.12
2023-06-29T14:34:14.448Z,990.14
2023-06-29T14:35:14.406Z,990.12
2023-06-29T14:36:14.362Z,990.22
2023-06-29T14:37:14.364Z,990.17
2023-06-29T14:38:15.049Z,990.09
2023-06-29T14:39:14.345Z,990.09
2023-06-29T14:40:14.358Z,990.06
2023-06-29T14:41:14.340Z,990.02
2023-06-29T14:42:14.510Z,990.00
2023-06-29T14:43:14.383Z,990.01